Time;durP1;ratioP1;P1;durP2;ratioP2;P2;SDS_P1;SDS_P2;PMS_P1;PMS_P2;Temp;Humidity;BMP_temperature;BMP_pressure;BME280_temperature;BME280_humidity;BME280_pressure;Samples;Min_cycle;Max_cycle;Signal;HPM_P1;HPM_P2
2022/02/13 00:02:07;;;;;;;7.47;3.20;;;;;;;;;;5040453;28;20079;-70
2022/02/13 00:04:32;;;;;;;8.17;2.97;;;;;;;;;;5040814;28;20017;-69
2022/02/13 00:06:57;;;;;;;12.93;3.40;;;;;;;;;;5040377;28;20021;-69
2022/02/13 00:09:23;;;;;;;11.03;3.83;;;;;;;;;;5040613;28;20586;-69
2022/02/13 00:11:48;;;;;;;9.83;3.50;;;;;;;;;;5039566;28;20086;-69
2022/02/13 00:14:13;;;;;;;7.03;3.07;;;;;;;;;;5040421;28;20025;-69
2022/02/13 00:16:39;;;;;;;13.43;3.67;;;;;;;;;;5040228;28;20325;-70
2022/02/13 00:19:04;;;;;;;8.43;3.30;;;;;;;;;;5040284;28;20036;-69
2022/02/13 00:21:29;;;;;;;9.00;3.17;;;;;;;;;;5039932;28;20021;-70
2022/02/13 00:23:55;;;;;;;8.37;3.37;;;;;;;;;;5039759;28;20488;-69
2022/02/13 00:26:20;;;;;;;9.37;3.97;;;;;;;;;;5039830;28;20358;-69
2022/02/13 00:28:45;;;;;;;7.07;3.10;;;;;;;;;;5040132;28;20087;-69
2022/02/13 00:31:11;;;;;;;6.30;2.63;;;;;;;;;;5040010;28;20086;-69
2022/02/13 00:33:36;;;;;;;5.73;3.10;;;;;;;;;;5040029;28;20032;-69
2022/02/13 00:36:01;;;;;;;10.33;4.00;;;;;;;;;;5037888;28;20017;-69
2022/02/13 00:38:27;;;;;;;10.47;4.10;;;;;;;;;;5039908;28;20036;-69
2022/02/13 00:40:52;;;;;;;9.63;3.43;;;;;;;;;;5039733;28;20023;-69
2022/02/13 00:43:17;;;;;;;7.30;3.07;;;;;;;;;;5040051;28;20091;-69
2022/02/13 00:45:42;;;;;;;6.17;3.07;;;;;;;;;;5039794;28;20039;-69
2022/02/13 00:48:10;;;;;;;9.50;3.07;;;;;;;;;;5039774;28;20104;-69
2022/02/13 00:50:35;;;;;;;8.60;3.60;;;;;;;;;;5039387;28;20373;-69
2022/02/13 00:53:00;;;;;;;10.20;3.27;;;;;;;;;;5039173;28;20092;-69
2022/02/13 00:55:26;;;;;;;7.27;3.13;;;;;;;;;;5039624;28;20409;-69
2022/02/13 00:57:51;;;;;;;10.43;3.50;;;;;;;;;;5039693;28;20025;-69
2022/02/13 01:00:17;;;;;;;10.57;3.60;;;;;;;;;;5032133;28;20318;-69
2022/02/13 01:02:42;;;;;;;9.13;3.37;;;;;;;;;;5039418;28;20149;-69
2022/02/13 01:05:07;;;;;;;9.07;3.60;;;;;;;;;;5039119;28;20028;-69
2022/02/13 01:07:32;;;;;;;8.00;3.23;;;;;;;;;;5039585;28;20017;-70
2022/02/13 01:09:58;;;;;;;10.87;3.20;;;;;;;;;;5039094;28;20287;-71
2022/02/13 01:12:23;;;;;;;10.20;3.53;;;;;;;;;;5039506;28;20032;-69
2022/02/13 01:14:48;;;;;;;10.70;3.90;;;;;;;;;;5038885;28;20029;-69
2022/02/13 01:17:13;;;;;;;9.00;2.80;;;;;;;;;;5039441;28;20104;-69
2022/02/13 01:19:39;;;;;;;9.60;3.63;;;;;;;;;;5038912;28;20021;-69
2022/02/13 01:22:07;;;;;;;10.10;3.47;;;;;;;;;;5038965;28;20508;-69
2022/02/13 01:24:33;;;;;;;5.77;2.80;;;;;;;;;;5039106;28;20331;-69
2022/02/13 01:26:58;;;;;;;14.63;3.83;;;;;;;;;;5038993;28;20053;-69
2022/02/13 01:29:23;;;;;;;9.23;3.60;;;;;;;;;;5039149;28;20021;-69
2022/02/13 01:31:49;;;;;;;8.40;3.40;;;;;;;;;;5038656;28;20028;-69
2022/02/13 01:34:18;;;;;;;8.67;3.60;;;;;;;;;;5038863;28;20378;-69
2022/02/13 01:36:43;;;;;;;11.10;3.40;;;;;;;;;;5036154;28;20524;-69
2022/02/13 01:39:11;;;;;;;8.30;3.20;;;;;;;;;;5026342;28;20021;-68
2022/02/13 01:41:36;;;;;;;8.77;3.40;;;;;;;;;;5038585;28;20035;-71
2022/02/13 01:44:02;;;;;;;8.20;3.20;;;;;;;;;;5038796;28;20219;-71
2022/02/13 01:46:27;;;;;;;9.57;3.87;;;;;;;;;;5038216;28;20090;-71
2022/02/13 01:48:52;;;;;;;10.57;3.47;;;;;;;;;;5037405;28;20104;-71
2022/02/13 01:51:18;;;;;;;7.90;3.80;;;;;;;;;;5034184;28;20025;-69
2022/02/13 01:53:43;;;;;;;8.23;3.13;;;;;;;;;;5038564;28;20457;-69
2022/02/13 01:56:09;;;;;;;9.77;3.80;;;;;;;;;;5038409;28;20021;-69
2022/02/13 01:58:34;;;;;;;8.33;3.77;;;;;;;;;;5038497;28;20082;-69
2022/02/13 02:00:59;;;;;;;8.50;3.30;;;;;;;;;;5036978;28;20532;-68
2022/02/13 02:03:25;;;;;;;11.07;4.80;;;;;;;;;;5044067;22;20065;-72
2022/02/13 02:05:51;;;;;;;11.03;4.37;;;;;;;;;;5041663;28;20033;-72
2022/02/13 02:08:16;;;;;;;11.97;4.63;;;;;;;;;;5041724;28;20033;-72
2022/02/13 02:10:41;;;;;;;10.63;3.80;;;;;;;;;;5041174;28;20039;-72
2022/02/13 02:13:07;;;;;;;8.27;3.30;;;;;;;;;;5041241;28;20096;-72
2022/02/13 02:15:32;;;;;;;9.20;3.43;;;;;;;;;;5040845;28;20025;-72
2022/02/13 02:17:58;;;;;;;8.20;3.20;;;;;;;;;;5041760;28;20029;-72
2022/02/13 02:20:23;;;;;;;11.77;4.40;;;;;;;;;;5031861;28;20024;-72
2022/02/13 02:22:49;;;;;;;8.70;4.00;;;;;;;;;;5041485;28;20050;-72
2022/02/13 02:25:17;;;;;;;12.70;4.97;;;;;;;;;;5040968;28;20063;-72
2022/02/13 02:27:42;;;;;;;10.57;3.70;;;;;;;;;;5041129;28;20267;-72
2022/02/13 02:30:08;;;;;;;7.97;3.47;;;;;;;;;;5040758;28;20772;-72
2022/02/13 02:32:33;;;;;;;10.20;4.33;;;;;;;;;;5041628;28;20126;-72
2022/02/13 02:35:01;;;;;;;14.57;4.17;;;;;;;;;;5040827;28;20040;-72
2022/02/13 02:37:26;;;;;;;12.07;4.13;;;;;;;;;;5041432;28;20044;-72
2022/02/13 02:39:51;;;;;;;7.67;3.77;;;;;;;;;;5041055;28;20033;-72
2022/02/13 02:42:16;;;;;;;8.13;3.90;;;;;;;;;;5041590;28;20029;-72
2022/02/13 02:44:42;;;;;;;8.67;4.10;;;;;;;;;;5041022;28;20079;-72
2022/02/13 02:47:07;;;;;;;9.50;3.47;;;;;;;;;;5040967;28;20086;-72
2022/02/13 02:49:32;;;;;;;11.67;4.73;;;;;;;;;;5041058;28;20100;-72
2022/02/13 02:51:58;;;;;;;8.80;4.00;;;;;;;;;;5040772;28;20457;-72
2022/02/13 02:54:23;;;;;;;9.60;3.93;;;;;;;;;;5040704;28;20391;-72
2022/02/13 02:56:48;;;;;;;14.87;3.80;;;;;;;;;;5040669;28;20033;-72
2022/02/13 02:59:13;;;;;;;10.47;3.80;;;;;;;;;;5040854;28;20067;-72
2022/02/13 03:01:39;;;;;;;7.63;3.30;;;;;;;;;;5040706;28;20029;-72
2022/02/13 03:04:04;;;;;;;10.63;4.40;;;;;;;;;;5040470;28;20028;-72
2022/02/13 03:06:29;;;;;;;12.33;4.77;;;;;;;;;;5040681;28;20055;-72
2022/02/13 03:08:54;;;;;;;10.23;3.73;;;;;;;;;;5041489;28;20166;-72
2022/02/13 03:11:20;;;;;;;10.97;4.40;;;;;;;;;;5041081;28;20025;-72
2022/02/13 03:13:45;;;;;;;10.57;3.77;;;;;;;;;;5022682;28;20444;-72
2022/02/13 03:16:10;;;;;;;9.80;4.10;;;;;;;;;;5037524;28;20576;-72
2022/02/13 03:18:36;;;;;;;12.27;4.63;;;;;;;;;;5044986;28;20051;-72
2022/02/13 03:21:01;;;;;;;11.00;4.27;;;;;;;;;;5044404;28;20366;-72
2022/02/13 03:23:27;;;;;;;12.03;3.60;;;;;;;;;;5040184;28;20099;-72
2022/02/13 03:25:53;;;;;;;14.23;4.13;;;;;;;;;;5035163;28;20363;-72
2022/02/13 03:28:18;;;;;;;10.97;3.53;;;;;;;;;;5040682;28;20095;-72
2022/02/13 03:30:45;;;;;;;10.17;4.80;;;;;;;;;;5035835;28;20103;-72
2022/02/13 03:33:11;;;;;;;11.40;4.03;;;;;;;;;;5044744;28;20048;-72
2022/02/13 03:35:36;;;;;;;14.03;4.33;;;;;;;;;;5041203;28;20095;-72
2022/02/13 03:38:05;;;;;;;10.50;4.37;;;;;;;;;;5041425;28;20053;-72
2022/02/13 03:40:31;;;;;;;12.07;4.77;;;;;;;;;;5033894;28;20178;-72
2022/02/13 03:42:57;;;;;;;10.47;4.17;;;;;;;;;;5044770;28;20072;-72
2022/02/13 03:45:22;;;;;;;9.50;4.00;;;;;;;;;;5044990;28;20025;-72
2022/02/13 03:47:47;;;;;;;12.27;4.50;;;;;;;;;;5044967;28;20392;-74
2022/02/13 03:50:13;;;;;;;10.00;3.63;;;;;;;;;;5044712;28;20033;-74
2022/02/13 03:52:38;;;;;;;11.23;5.33;;;;;;;;;;5039972;28;20041;-74
2022/02/13 03:55:04;;;;;;;9.73;4.03;;;;;;;;;;5027622;28;20175;-74
2022/02/13 03:57:29;;;;;;;13.23;3.97;;;;;;;;;;5043979;28;20792;-74
2022/02/13 03:59:55;;;;;;;13.27;4.43;;;;;;;;;;5043510;28;20025;-74
2022/02/13 04:02:21;;;;;;;8.80;4.53;;;;;;;;;;5041747;28;20470;-74
2022/02/13 04:04:46;;;;;;;12.80;3.97;;;;;;;;;;5043914;28;20059;-74
2022/02/13 04:07:11;;;;;;;11.93;4.70;;;;;;;;;;5043402;28;20500;-74
2022/02/13 04:09:37;;;;;;;8.43;3.73;;;;;;;;;;5043575;28;20025;-74
2022/02/13 04:12:02;;;;;;;13.27;4.47;;;;;;;;;;5043227;28;20044;-74
2022/02/13 04:14:28;;;;;;;11.63;4.23;;;;;;;;;;5043372;28;20033;-74
2022/02/13 04:16:53;;;;;;;10.23;4.00;;;;;;;;;;5043273;28;20106;-74
2022/02/13 04:19:18;;;;;;;8.00;4.27;;;;;;;;;;5043555;28;20409;-74
2022/02/13 04:21:43;;;;;;;10.77;4.53;;;;;;;;;;5043620;28;20013;-74
2022/02/13 04:24:09;;;;;;;11.73;4.70;;;;;;;;;;5043617;28;20044;-74
2022/02/13 04:26:34;;;;;;;13.20;4.70;;;;;;;;;;5042825;28;20041;-74
2022/02/13 04:28:59;;;;;;;10.87;5.37;;;;;;;;;;5043682;28;20082;-74
2022/02/13 04:31:25;;;;;;;15.67;4.60;;;;;;;;;;5043603;28;20036;-74
2022/02/13 04:33:50;;;;;;;12.30;4.77;;;;;;;;;;5043464;28;20651;-74
2022/02/13 04:36:15;;;;;;;12.43;4.93;;;;;;;;;;5040835;28;20591;-74
2022/02/13 04:38:41;;;;;;;11.77;4.53;;;;;;;;;;5035588;28;20033;-74
2022/02/13 04:41:06;;;;;;;9.77;4.20;;;;;;;;;;5038546;28;20033;-74
2022/02/13 04:43:31;;;;;;;9.03;3.80;;;;;;;;;;5043330;28;20041;-74
2022/02/13 04:45:57;;;;;;;11.23;4.53;;;;;;;;;;5042854;28;20029;-74
2022/02/13 04:48:22;;;;;;;8.90;4.10;;;;;;;;;;5043418;28;20091;-74
2022/02/13 04:50:47;;;;;;;10.63;4.90;;;;;;;;;;5042945;28;20037;-74
2022/02/13 04:53:12;;;;;;;10.17;4.07;;;;;;;;;;5043089;28;20055;-74
2022/02/13 04:55:38;;;;;;;8.83;4.40;;;;;;;;;;5035965;28;20128;-74
2022/02/13 04:58:03;;;;;;;11.47;4.67;;;;;;;;;;5043293;28;20025;-74
2022/02/13 05:00:29;;;;;;;19.73;4.90;;;;;;;;;;5043335;28;20111;-74
2022/02/13 05:02:54;;;;;;;9.33;4.00;;;;;;;;;;5042473;28;20045;-74
2022/02/13 05:05:19;;;;;;;12.20;4.73;;;;;;;;;;5043680;28;20029;-74
2022/02/13 05:07:45;;;;;;;14.77;4.83;;;;;;;;;;5043364;28;20631;-74
2022/02/13 05:10:11;;;;;;;10.90;4.00;;;;;;;;;;5032940;28;20036;-74
2022/02/13 05:12:36;;;;;;;9.60;5.10;;;;;;;;;;5042822;28;20098;-74
2022/02/13 05:15:01;;;;;;;10.70;4.17;;;;;;;;;;5043163;28;20378;-74
2022/02/13 05:17:27;;;;;;;13.10;4.17;;;;;;;;;;5043579;28;20469;-74
2022/02/13 05:19:52;;;;;;;10.20;4.00;;;;;;;;;;5043361;28;20605;-74
2022/02/13 05:22:17;;;;;;;8.63;3.87;;;;;;;;;;5043672;28;20516;-74
2022/02/13 05:24:45;;;;;;;9.03;3.53;;;;;;;;;;5042920;28;20028;-74
2022/02/13 05:27:11;;;;;;;8.80;3.97;;;;;;;;;;5042420;28;20056;-74
2022/02/13 05:29:36;;;;;;;8.73;3.97;;;;;;;;;;5043569;28;20627;-74
2022/02/13 05:32:06;;;;;;;7.83;3.77;;;;;;;;;;5043243;28;20542;-72
2022/02/13 05:34:32;;;;;;;8.93;4.23;;;;;;;;;;5041340;28;20035;-73
2022/02/13 05:36:57;;;;;;;8.43;3.80;;;;;;;;;;5042545;28;20025;-72
2022/02/13 05:39:22;;;;;;;8.53;3.67;;;;;;;;;;5029282;28;20512;-72
2022/02/13 05:41:48;;;;;;;7.60;3.90;;;;;;;;;;5042610;28;20021;-73
2022/02/13 05:44:13;;;;;;;10.90;3.70;;;;;;;;;;5042419;28;20017;-72
2022/02/13 05:46:38;;;;;;;10.70;3.50;;;;;;;;;;5042424;28;20060;-72
2022/02/13 05:49:04;;;;;;;13.90;3.90;;;;;;;;;;5041913;28;20025;-72
2022/02/13 05:51:29;;;;;;;11.27;3.87;;;;;;;;;;5042318;28;20036;-72
2022/02/13 05:53:55;;;;;;;11.13;3.90;;;;;;;;;;5040807;28;20120;-73
2022/02/13 05:56:21;;;;;;;10.40;4.17;;;;;;;;;;5042490;28;20021;-72
2022/02/13 05:58:46;;;;;;;10.07;4.50;;;;;;;;;;5029209;28;20056;-73
2022/02/13 06:01:12;;;;;;;10.93;3.97;;;;;;;;;;5040763;28;21302;-72
2022/02/13 06:03:37;;;;;;;13.93;4.23;;;;;;;;;;5041363;28;20053;-72
2022/02/13 06:06:02;;;;;;;12.33;4.50;;;;;;;;;;5041687;28;20033;-72
2022/02/13 06:08:28;;;;;;;11.07;4.00;;;;;;;;;;5041967;28;20086;-73
2022/02/13 06:10:53;;;;;;;10.40;3.70;;;;;;;;;;5040966;28;20025;-72
2022/02/13 06:13:18;;;;;;;12.17;4.10;;;;;;;;;;5041441;28;20078;-72
2022/02/13 06:15:44;;;;;;;11.27;4.20;;;;;;;;;;5031619;28;20638;-72
2022/02/13 06:18:09;;;;;;;15.87;4.43;;;;;;;;;;5041774;28;20025;-73
2022/02/13 06:20:34;;;;;;;11.67;5.20;;;;;;;;;;5041642;28;20455;-73
2022/02/13 06:22:59;;;;;;;9.07;4.20;;;;;;;;;;5042273;28;20022;-72
2022/02/13 06:25:25;;;;;;;10.47;3.97;;;;;;;;;;5041257;28;20401;-73
2022/02/13 06:27:50;;;;;;;11.47;3.93;;;;;;;;;;5041349;28;20033;-73
2022/02/13 06:30:15;;;;;;;15.40;4.67;;;;;;;;;;5040138;28;20116;-73
2022/02/13 06:32:41;;;;;;;9.33;4.07;;;;;;;;;;5041034;28;20021;-73
2022/02/13 06:35:06;;;;;;;10.20;4.17;;;;;;;;;;5041242;28;20040;-73
2022/02/13 06:37:32;;;;;;;8.87;4.20;;;;;;;;;;5040591;28;20009;-73
2022/02/13 06:39:58;;;;;;;8.87;3.67;;;;;;;;;;5024694;28;20049;-73
2022/02/13 06:42:23;;;;;;;12.13;4.57;;;;;;;;;;5041297;28;20025;-73
2022/02/13 06:44:49;;;;;;;10.37;4.40;;;;;;;;;;5041006;28;20104;-73
2022/02/13 06:47:14;;;;;;;9.93;4.20;;;;;;;;;;5025244;28;20679;-73
2022/02/13 06:49:40;;;;;;;11.53;5.07;;;;;;;;;;5025870;28;20048;-73
2022/02/13 06:52:05;;;;;;;10.27;4.30;;;;;;;;;;5044250;28;20060;-73
2022/02/13 06:54:30;;;;;;;8.77;4.30;;;;;;;;;;5046154;28;20906;-73
2022/02/13 06:56:56;;;;;;;13.87;5.17;;;;;;;;;;5045533;28;20407;-73
2022/02/13 06:59:22;;;;;;;11.83;4.57;;;;;;;;;;5042022;28;20100;-73
2022/02/13 07:01:47;;;;;;;11.30;4.83;;;;;;;;;;5046255;28;20025;-73
2022/02/13 07:04:12;;;;;;;11.87;4.50;;;;;;;;;;5045921;28;20025;-73
2022/02/13 07:06:38;;;;;;;10.30;4.67;;;;;;;;;;5048843;28;20469;-73
2022/02/13 07:09:03;;;;;;;9.90;4.00;;;;;;;;;;5050598;28;20158;-73
2022/02/13 07:11:28;;;;;;;10.90;4.17;;;;;;;;;;5048652;28;20021;-73
2022/02/13 07:13:53;;;;;;;8.23;3.97;;;;;;;;;;5050407;28;20107;-73
2022/02/13 07:16:19;;;;;;;15.20;4.67;;;;;;;;;;5048755;28;20025;-73
2022/02/13 07:18:44;;;;;;;10.03;4.37;;;;;;;;;;5048004;28;20021;-73
2022/02/13 07:21:09;;;;;;;8.43;3.90;;;;;;;;;;5046738;28;20021;-73
2022/02/13 07:23:34;;;;;;;10.23;4.40;;;;;;;;;;5045179;28;20394;-73
2022/02/13 07:26:01;;;;;;;10.57;4.27;;;;;;;;;;5040103;28;20037;-73
2022/02/13 07:31:10;;;;;;;8.63;3.90;;;;;;;;;;5049338;28;20040;-73
2022/02/13 07:33:35;;;;;;;9.43;4.60;;;;;;;;;;5049284;28;20271;-73
2022/02/13 07:36:01;;;;;;;8.33;3.30;;;;;;;;;;5049466;28;20037;-73
2022/02/13 07:38:26;;;;;;;8.67;4.00;;;;;;;;;;5048419;28;20083;-73
2022/02/13 07:40:51;;;;;;;10.07;3.83;;;;;;;;;;5046014;28;20092;-73
2022/02/13 07:43:16;;;;;;;10.70;4.00;;;;;;;;;;5048568;28;20471;-73
2022/02/13 07:45:42;;;;;;;11.83;4.20;;;;;;;;;;5048350;28;20068;-73
2022/02/13 07:48:09;;;;;;;8.97;2.90;;;;;;;;;;5042348;28;20385;-73
2022/02/13 07:50:35;;;;;;;8.17;3.20;;;;;;;;;;5039206;28;20024;-73
2022/02/13 07:53:00;;;;;;;7.37;3.50;;;;;;;;;;5048164;28;20481;-73
2022/02/13 07:55:26;;;;;;;8.87;3.53;;;;;;;;;;5045848;28;20095;-73
2022/02/13 07:57:51;;;;;;;8.17;2.97;;;;;;;;;;5047586;28;20036;-73
2022/02/13 08:00:17;;;;;;;9.33;3.60;;;;;;;;;;5046156;28;20025;-73
2022/02/13 08:02:42;;;;;;;8.17;3.40;;;;;;;;;;5040920;28;20045;-73
2022/02/13 08:05:08;;;;;;;8.37;4.00;;;;;;;;;;5032375;28;20029;-73
2022/02/13 08:07:33;;;;;;;9.93;3.23;;;;;;;;;;5045027;28;20460;-73
2022/02/13 08:09:58;;;;;;;8.27;3.23;;;;;;;;;;5046674;28;20064;-73
2022/02/13 08:12:24;;;;;;;6.47;2.80;;;;;;;;;;5046316;28;20060;-73
2022/02/13 08:14:49;;;;;;;8.23;3.13;;;;;;;;;;5045229;28;20033;-73
2022/02/13 08:17:14;;;;;;;7.93;3.33;;;;;;;;;;5046211;28;20353;-73
2022/02/13 08:19:40;;;;;;;7.77;3.67;;;;;;;;;;5044282;28;20051;-74
2022/02/13 08:22:05;;;;;;;7.57;2.77;;;;;;;;;;5045687;28;20563;-74
2022/02/13 08:24:31;;;;;;;7.20;2.70;;;;;;;;;;5044250;28;20112;-74
2022/02/13 08:26:56;;;;;;;7.83;2.77;;;;;;;;;;5043032;28;20029;-74
2022/02/13 08:29:22;;;;;;;5.70;2.50;;;;;;;;;;5043689;28;20012;-74
2022/02/13 08:31:47;;;;;;;10.37;3.00;;;;;;;;;;5043028;28;20836;-72
2022/02/13 08:34:13;;;;;;;5.37;2.77;;;;;;;;;;5043549;28;20113;-73
2022/02/13 08:36:38;;;;;;;6.47;2.57;;;;;;;;;;5042638;28;20032;-72
2022/02/13 08:39:03;;;;;;;8.77;2.43;;;;;;;;;;5043034;28;20438;-72
2022/02/13 08:41:29;;;;;;;5.53;2.70;;;;;;;;;;5042776;28;20053;-74
2022/02/13 08:43:54;;;;;;;8.47;2.53;;;;;;;;;;5043221;28;20044;-73
2022/02/13 08:46:19;;;;;;;7.00;2.33;;;;;;;;;;5042345;28;20646;-75
2022/02/13 08:48:45;;;;;;;7.17;2.60;;;;;;;;;;5042792;28;20840;-75
2022/02/13 08:51:11;;;;;;;7.77;2.40;;;;;;;;;;5042786;28;20421;-75
2022/02/13 08:53:37;;;;;;;8.03;2.47;;;;;;;;;;5042672;28;20025;-73
2022/02/13 08:56:02;;;;;;;6.20;2.50;;;;;;;;;;5042444;28;20033;-72
2022/02/13 08:58:27;;;;;;;5.80;2.43;;;;;;;;;;5042895;28;20021;-74
2022/02/13 09:00:53;;;;;;;7.10;2.60;;;;;;;;;;5042168;28;20492;-74
2022/02/13 09:03:18;;;;;;;6.87;2.47;;;;;;;;;;5041962;28;20049;-74
2022/02/13 09:05:44;;;;;;;6.00;2.43;;;;;;;;;;5042355;28;20079;-74
2022/02/13 09:08:09;;;;;;;6.67;2.63;;;;;;;;;;5042208;28;20673;-74
2022/02/13 09:10:35;;;;;;;6.20;2.47;;;;;;;;;;5042363;28;20107;-74
2022/02/13 09:13:01;;;;;;;7.93;2.80;;;;;;;;;;5042596;28;20135;-73
2022/02/13 09:15:31;;;;;;;5.40;2.33;;;;;;;;;;5042299;28;20636;-73
2022/02/13 09:17:57;;;;;;;6.20;2.40;;;;;;;;;;5042376;28;20100;-73
2022/02/13 09:20:22;;;;;;;6.70;2.70;;;;;;;;;;5041928;28;20080;-73
2022/02/13 09:22:47;;;;;;;7.50;2.80;;;;;;;;;;5042464;28;20027;-74
2022/02/13 09:25:13;;;;;;;8.03;3.00;;;;;;;;;;5040422;28;20025;-73
2022/02/13 09:27:38;;;;;;;9.63;2.90;;;;;;;;;;5042244;28;20107;-73
2022/02/13 09:30:04;;;;;;;7.30;2.80;;;;;;;;;;5041863;28;20036;-74
2022/02/13 09:32:29;;;;;;;6.63;2.70;;;;;;;;;;5042230;28;20047;-72
2022/02/13 09:34:54;;;;;;;5.23;2.53;;;;;;;;;;5041862;28;20033;-73
2022/02/13 09:37:20;;;;;;;6.23;2.60;;;;;;;;;;5042088;28;20017;-73
2022/02/13 09:39:46;;;;;;;5.50;2.77;;;;;;;;;;5028750;28;20033;-73
2022/02/13 09:42:11;;;;;;;5.33;2.53;;;;;;;;;;5042165;28;20487;-73
2022/02/13 09:44:37;;;;;;;5.77;2.83;;;;;;;;;;5041789;28;20094;-73
2022/02/13 09:47:02;;;;;;;7.30;2.57;;;;;;;;;;5041854;28;20227;-73
2022/02/13 09:49:28;;;;;;;5.97;2.60;;;;;;;;;;5041635;28;20032;-73
2022/02/13 09:51:54;;;;;;;5.87;2.67;;;;;;;;;;5041595;28;20035;-73
2022/02/13 09:54:19;;;;;;;5.27;2.87;;;;;;;;;;5041620;28;20108;-73
2022/02/13 09:56:47;;;;;;;5.13;2.20;;;;;;;;;;5042167;28;20076;-73
2022/02/13 09:59:12;;;;;;;9.03;2.70;;;;;;;;;;5041964;28;20074;-73
2022/02/13 10:01:38;;;;;;;4.83;2.30;;;;;;;;;;5053334;28;20032;-73
2022/02/13 10:04:04;;;;;;;5.93;2.40;;;;;;;;;;5043886;28;20048;-73
2022/02/13 10:06:29;;;;;;;5.90;2.80;;;;;;;;;;5040662;28;20029;-73
2022/02/13 10:08:56;;;;;;;5.73;2.70;;;;;;;;;;5042272;28;20036;-73
2022/02/13 10:11:25;;;;;;;7.50;2.67;;;;;;;;;;5042867;28;20493;-73
2022/02/13 10:13:53;;;;;;;7.50;2.63;;;;;;;;;;5043464;28;20572;-74
2022/02/13 10:16:25;;;;;;;7.53;2.53;;;;;;;;;;5042767;28;20116;-74
2022/02/13 10:18:52;;;;;;;7.73;2.53;;;;;;;;;;5043825;28;20033;-74
2022/02/13 10:21:33;;;;;;;5.20;2.10;;;;;;;;;;5045134;28;20025;-73
2022/02/13 10:24:10;;;;;;;5.43;2.13;;;;;;;;;;5043264;28;20021;-74
2022/02/13 10:26:36;;;;;;;6.63;2.40;;;;;;;;;;5043336;28;20033;-74
2022/02/13 10:29:02;;;;;;;7.33;2.67;;;;;;;;;;5044641;28;20033;-74
2022/02/13 10:31:28;;;;;;;5.93;2.10;;;;;;;;;;5043564;28;20025;-74
2022/02/13 10:33:57;;;;;;;7.93;2.70;;;;;;;;;;5042873;28;20112;-74
2022/02/13 10:36:23;;;;;;;6.70;2.60;;;;;;;;;;5041574;28;20025;-75
2022/02/13 10:38:48;;;;;;;6.43;2.90;;;;;;;;;;5041776;28;20028;-74
2022/02/13 10:41:29;;;;;;;4.77;2.40;;;;;;;;;;5037583;28;20108;-75
2022/02/13 10:43:55;;;;;;;6.78;2.65;;;;;;;;;;5041376;28;20021;-75
2022/02/13 10:46:21;;;;;;;5.80;2.60;;;;;;;;;;5029484;28;20029;-75
2022/02/13 10:48:47;;;;;;;5.33;2.57;;;;;;;;;;5024920;28;20414;-75
2022/02/13 10:51:13;;;;;;;4.47;2.17;;;;;;;;;;5041816;28;20051;-74
2022/02/13 10:53:41;;;;;;;7.33;3.07;;;;;;;;;;5042061;28;20037;-74
2022/02/13 10:56:07;;;;;;;7.07;2.70;;;;;;;;;;5040887;28;20021;-75
2022/02/13 10:58:32;;;;;;;5.97;2.63;;;;;;;;;;5041322;28;20556;-75
2022/02/13 11:00:59;;;;;;;5.70;2.70;;;;;;;;;;5040949;28;20029;-75
2022/02/13 11:03:25;;;;;;;6.73;2.60;;;;;;;;;;5040623;28;20059;-75
2022/02/13 11:05:50;;;;;;;7.13;2.97;;;;;;;;;;5031427;28;20029;-75
2022/02/13 11:08:17;;;;;;;6.83;2.83;;;;;;;;;;5040910;28;20043;-75
2022/02/13 11:10:44;;;;;;;5.67;2.73;;;;;;;;;;5040924;28;20036;-75
2022/02/13 11:13:11;;;;;;;5.97;2.60;;;;;;;;;;5041423;28;20021;-75
2022/02/13 11:15:39;;;;;;;7.57;2.80;;;;;;;;;;5040440;28;20112;-75
2022/02/13 11:18:05;;;;;;;7.13;2.70;;;;;;;;;;5041281;28;20027;-74
2022/02/13 11:20:32;;;;;;;5.80;2.60;;;;;;;;;;5041177;28;20029;-74
2022/02/13 11:23:15;;;;;;;6.63;2.90;;;;;;;;;;5028891;28;20042;-74
2022/02/13 11:25:48;;;;;;;5.30;2.50;;;;;;;;;;5029329;28;20063;-75
2022/02/13 11:28:13;;;;;;;5.70;2.60;;;;;;;;;;5040890;28;20027;-75
2022/02/13 11:30:42;;;;;;;6.30;3.10;;;;;;;;;;5040519;28;20100;-75
2022/02/13 11:33:23;;;;;;;5.27;2.37;;;;;;;;;;5041299;28;20025;-75
2022/02/13 11:35:54;;;;;;;6.47;2.43;;;;;;;;;;5042825;28;20448;-75
2022/02/13 11:38:38;;;;;;;4.95;2.53;;;;;;;;;;5044392;28;20059;-75
2022/02/13 11:41:07;;;;;;;4.43;2.40;;;;;;;;;;5044353;28;20039;-74
2022/02/13 11:43:51;;;;;;;5.63;2.63;;;;;;;;;;5044741;28;20044;-75
2022/02/13 11:46:26;;;;;;;6.77;2.77;;;;;;;;;;5044164;28;20048;-73
2022/02/13 11:48:58;;;;;;;6.10;2.00;;;;;;;;;;5044197;28;20013;-74
2022/02/13 11:51:42;;;;;;;4.55;2.08;;;;;;;;;;5044217;28;20020;-74
2022/02/13 11:54:07;;;;;;;5.97;2.57;;;;;;;;;;5044086;28;20025;-74
2022/02/13 11:56:32;;;;;;;5.23;2.60;;;;;;;;;;5044175;28;20427;-76
2022/02/13 11:58:59;;;;;;;6.60;3.07;;;;;;;;;;5044013;28;20028;-75
2022/02/13 12:01:36;;;;;;;7.33;2.67;;;;;;;;;;5043471;28;20037;-75
2022/02/13 12:04:08;;;;;;;4.23;2.30;;;;;;;;;;5042555;28;20025;-75
2022/02/13 12:06:33;;;;;;;;;;;;;;;;;;5044622;28;20056;-75
2022/02/13 12:09:06;;;;;;;7.00;2.37;;;;;;;;;;5044075;28;19940;-75
2022/02/13 12:11:34;;;;;;;4.47;2.40;;;;;;;;;;5043776;28;20029;-76
2022/02/13 12:14:13;;;;;;;5.80;2.40;;;;;;;;;;5043358;28;20501;-74
2022/02/13 12:16:38;;;;;;;5.63;2.47;;;;;;;;;;5043943;28;20436;-76
2022/02/13 12:19:07;;;;;;;6.83;2.30;;;;;;;;;;5044142;28;20021;-75
2022/02/13 12:21:35;;;;;;;5.87;2.50;;;;;;;;;;5041631;28;20029;-75
2022/02/13 12:24:04;;;;;;;5.53;2.60;;;;;;;;;;5043875;28;20078;-75
2022/02/13 12:26:30;;;;;;;5.57;2.60;;;;;;;;;;5042813;28;20027;-75
2022/02/13 12:28:56;;;;;;;6.10;2.40;;;;;;;;;;5043831;28;20029;-75
2022/02/13 12:31:22;;;;;;;6.13;2.67;;;;;;;;;;5043085;28;20024;-74
2022/02/13 12:33:51;;;;;;;5.43;2.40;;;;;;;;;;5043469;28;20021;-75
2022/02/13 12:36:25;;;;;;;5.83;2.27;;;;;;;;;;5042837;28;20025;-74
2022/02/13 12:38:54;;;;;;;4.80;2.33;;;;;;;;;;5042507;28;20013;-75
2022/02/13 12:41:22;;;;;;;5.73;2.57;;;;;;;;;;5038771;28;20028;-74
2022/02/13 12:43:47;;;;;;;5.10;2.43;;;;;;;;;;5022949;28;20029;-75
2022/02/13 12:46:16;;;;;;;5.70;2.57;;;;;;;;;;5035483;28;20024;-74
2022/02/13 12:48:41;;;;;;;7.83;2.10;;;;;;;;;;5043251;28;20082;-74
2022/02/13 12:51:06;;;;;;;5.77;2.40;;;;;;;;;;5042791;28;20493;-75
2022/02/13 12:53:32;;;;;;;6.33;2.47;;;;;;;;;;5043085;28;20025;-74
2022/02/13 12:55:58;;;;;;;7.67;3.07;;;;;;;;;;5042415;28;20036;-75
2022/02/13 12:58:24;;;;;;;6.10;2.70;;;;;;;;;;5042957;28;20461;-75
2022/02/13 13:00:50;;;;;;;7.03;2.70;;;;;;;;;;5040930;28;20024;-75
2022/02/13 13:03:18;;;;;;;5.40;2.53;;;;;;;;;;5042143;28;20446;-75
2022/02/13 13:05:48;;;;;;;6.53;2.83;;;;;;;;;;5042157;28;20032;-75
2022/02/13 13:08:16;;;;;;;5.93;2.40;;;;;;;;;;5042476;28;20083;-75
2022/02/13 13:10:43;;;;;;;5.37;2.30;;;;;;;;;;5042335;28;20489;-74
2022/02/13 13:13:08;;;;;;;5.87;2.43;;;;;;;;;;5042324;28;20024;-74
2022/02/13 13:15:37;;;;;;;5.70;2.60;;;;;;;;;;5041935;28;20698;-74
2022/02/13 13:18:03;;;;;;;5.20;2.40;;;;;;;;;;5042185;28;20052;-73
2022/02/13 13:20:37;;;;;;;6.23;2.47;;;;;;;;;;5028963;28;20021;-73
2022/02/13 13:23:14;;;;;;;8.77;2.63;;;;;;;;;;5042322;28;20419;-73
2022/02/13 13:25:49;;;;;;;5.27;2.50;;;;;;;;;;5041733;28;20032;-75
2022/02/13 13:28:16;;;;;;;8.97;3.37;;;;;;;;;;5042452;28;20095;-75
2022/02/13 13:30:42;;;;;;;5.63;2.23;;;;;;;;;;5041807;28;20048;-73
2022/02/13 13:33:08;;;;;;;5.90;2.37;;;;;;;;;;5042121;28;20824;-73
2022/02/13 13:35:33;;;;;;;5.40;2.57;;;;;;;;;;5041855;28;20100;-73
2022/02/13 13:38:00;;;;;;;4.67;2.07;;;;;;;;;;5038959;28;20021;-73
2022/02/13 13:40:26;;;;;;;5.67;2.03;;;;;;;;;;5032392;28;20048;-74
2022/02/13 13:42:57;;;;;;;6.33;2.00;;;;;;;;;;5038844;28;20409;-73
2022/02/13 13:45:27;;;;;;;6.22;2.15;;;;;;;;;;5032570;28;20110;-73
2022/02/13 13:47:53;;;;;;;5.70;2.70;;;;;;;;;;5041506;28;20090;-73
2022/02/13 13:50:21;;;;;;;5.10;1.73;;;;;;;;;;5041368;28;20021;-73
2022/02/13 13:52:46;;;;;;;5.47;2.30;;;;;;;;;;5041517;28;20028;-75
2022/02/13 13:55:12;;;;;;;3.93;1.83;;;;;;;;;;5041523;28;20029;-73
2022/02/13 13:57:38;;;;;;;5.03;2.30;;;;;;;;;;5041841;28;20017;-73
2022/02/13 14:00:05;;;;;;;4.30;1.70;;;;;;;;;;5040393;28;20114;-73
2022/02/13 14:02:30;;;;;;;4.47;1.97;;;;;;;;;;5041516;28;20069;-74
2022/02/13 14:04:55;;;;;;;5.13;2.13;;;;;;;;;;5041641;28;20457;-74
2022/02/13 14:07:21;;;;;;;4.73;1.93;;;;;;;;;;5041303;28;20027;-74
2022/02/13 14:09:47;;;;;;;5.53;2.40;;;;;;;;;;5041434;28;20017;-74
2022/02/13 14:12:13;;;;;;;4.67;2.23;;;;;;;;;;5041904;28;20052;-74
2022/02/13 14:14:41;;;;;;;5.03;1.70;;;;;;;;;;5041719;28;20013;-74
2022/02/13 14:17:10;;;;;;;4.30;1.67;;;;;;;;;;5039222;28;20082;-74
2022/02/13 14:19:35;;;;;;;4.20;2.00;;;;;;;;;;5041398;28;20024;-74
2022/02/13 14:22:01;;;;;;;3.57;1.73;;;;;;;;;;5041273;28;20078;-74
2022/02/13 14:24:26;;;;;;;6.90;2.20;;;;;;;;;;5041463;28;20017;-74
2022/02/13 14:26:52;;;;;;;5.93;1.93;;;;;;;;;;5041091;28;20101;-74
2022/02/13 14:29:17;;;;;;;7.57;1.80;;;;;;;;;;5041388;28;20025;-74
2022/02/13 14:31:44;;;;;;;6.70;2.10;;;;;;;;;;5040916;28;20029;-74
2022/02/13 14:34:12;;;;;;;4.43;1.63;;;;;;;;;;5041131;28;20146;-74
2022/02/13 14:36:37;;;;;;;5.80;2.13;;;;;;;;;;5041097;28;20025;-74